Terminal Aerodrome Forecast
Issued by NWS

Home | Current Version | Previous Version | Text Only | Print | Product List | Glossary Off
Versions: 1 2 3 4 5 6 7 8 9 10 11 12 13 14 15 16 17

000
FTUS43 KTOP 281700
TAFFOE
TAF
KFOE 281720Z 2818/2918 19012KT P6SM SCT060 SCT150
     FM290300 19006KT P6SM VCTS BKN050CB
      TEMPO 2905/2909 4SM -TSRA OVC040CB=

USA.gov is the U.S. government's official web portal to all federal, state and local government web resources and services.